sensor_id;sensor_type;location;lat;lon;timestamp;P1;durP1;ratioP1;P2;durP2;ratioP2
317;SDS011;146;53.448;10.228;2023-04-24T00:00:37;6.27;;;5.77;;
317;SDS011;146;53.448;10.228;2023-04-24T00:03:05;5.83;;;5.43;;
317;SDS011;146;53.448;10.228;2023-04-24T00:05:32;6.63;;;6.03;;
317;SDS011;146;53.448;10.228;2023-04-24T00:07:59;6.00;;;5.50;;
317;SDS011;146;53.448;10.228;2023-04-24T00:10:26;5.90;;;5.30;;
317;SDS011;146;53.448;10.228;2023-04-24T00:12:54;5.97;;;5.47;;
317;SDS011;146;53.448;10.228;2023-04-24T00:15:21;6.57;;;6.00;;
317;SDS011;146;53.448;10.228;2023-04-24T00:17:48;6.13;;;5.63;;
317;SDS011;146;53.448;10.228;2023-04-24T00:20:15;6.17;;;5.57;;
317;SDS011;146;53.448;10.228;2023-04-24T00:22:42;6.70;;;6.20;;
317;SDS011;146;53.448;10.228;2023-04-24T00:25:08;6.10;;;5.60;;
317;SDS011;146;53.448;10.228;2023-04-24T00:27:35;5.70;;;5.10;;
317;SDS011;146;53.448;10.228;2023-04-24T00:30:05;6.47;;;5.97;;
317;SDS011;146;53.448;10.228;2023-04-24T00:32:33;6.93;;;6.33;;
317;SDS011;146;53.448;10.228;2023-04-24T00:35:00;6.13;;;5.63;;
317;SDS011;146;53.448;10.228;2023-04-24T00:37:27;6.67;;;5.97;;
317;SDS011;146;53.448;10.228;2023-04-24T00:39:53;6.63;;;6.03;;
317;SDS011;146;53.448;10.228;2023-04-24T00:42:20;6.30;;;5.80;;
317;SDS011;146;53.448;10.228;2023-04-24T00:44:47;6.10;;;5.60;;
317;SDS011;146;53.448;10.228;2023-04-24T00:47:15;6.20;;;5.67;;
317;SDS011;146;53.448;10.228;2023-04-24T00:49:42;6.53;;;6.00;;
317;SDS011;146;53.448;10.228;2023-04-24T00:52:09;6.00;;;5.60;;
317;SDS011;146;53.448;10.228;2023-04-24T00:54:37;6.20;;;5.77;;
317;SDS011;146;53.448;10.228;2023-04-24T00:57:04;6.70;;;6.10;;
317;SDS011;146;53.448;10.228;2023-04-24T00:59:31;5.10;;;4.70;;
317;SDS011;146;53.448;10.228;2023-04-24T01:01:58;6.07;;;5.57;;
317;SDS011;146;53.448;10.228;2023-04-24T01:04:27;6.90;;;6.40;;
317;SDS011;146;53.448;10.228;2023-04-24T01:06:54;6.43;;;5.83;;
317;SDS011;146;53.448;10.228;2023-04-24T01:09:22;7.10;;;5.83;;
317;SDS011;146;53.448;10.228;2023-04-24T01:11:49;5.30;;;4.90;;
317;SDS011;146;53.448;10.228;2023-04-24T01:14:16;7.07;;;5.80;;
317;SDS011;146;53.448;10.228;2023-04-24T01:16:43;5.33;;;4.93;;
317;SDS011;146;53.448;10.228;2023-04-24T01:19:10;5.67;;;5.20;;
317;SDS011;146;53.448;10.228;2023-04-24T01:21:38;5.50;;;5.00;;
317;SDS011;146;53.448;10.228;2023-04-24T01:24:09;5.80;;;5.40;;
317;SDS011;146;53.448;10.228;2023-04-24T01:26:35;5.80;;;5.30;;
317;SDS011;146;53.448;10.228;2023-04-24T01:29:02;6.20;;;5.60;;
317;SDS011;146;53.448;10.228;2023-04-24T01:31:29;6.00;;;5.50;;
317;SDS011;146;53.448;10.228;2023-04-24T01:33:58;5.77;;;5.27;;
317;SDS011;146;53.448;10.228;2023-04-24T01:36:25;8.07;;;4.87;;
317;SDS011;146;53.448;10.228;2023-04-24T01:38:54;5.23;;;4.83;;
317;SDS011;146;53.448;10.228;2023-04-24T01:41:23;4.00;;;3.73;;
317;SDS011;146;53.448;10.228;2023-04-24T01:43:50;4.70;;;4.30;;
317;SDS011;146;53.448;10.228;2023-04-24T01:46:17;4.97;;;4.57;;
317;SDS011;146;53.448;10.228;2023-04-24T01:48:45;3.97;;;3.67;;
317;SDS011;146;53.448;10.228;2023-04-24T01:51:12;4.40;;;4.10;;
317;SDS011;146;53.448;10.228;2023-04-24T01:53:38;4.13;;;3.80;;
317;SDS011;146;53.448;10.228;2023-04-24T01:56:05;3.83;;;3.40;;
317;SDS011;146;53.448;10.228;2023-04-24T01:58:34;4.23;;;3.93;;
317;SDS011;146;53.448;10.228;2023-04-24T02:01:02;4.63;;;4.33;;
317;SDS011;146;53.448;10.228;2023-04-24T02:03:28;4.87;;;4.47;;
317;SDS011;146;53.448;10.228;2023-04-24T02:05:55;4.37;;;4.07;;
317;SDS011;146;53.448;10.228;2023-04-24T02:08:22;3.90;;;3.60;;
317;SDS011;146;53.448;10.228;2023-04-24T02:10:49;4.97;;;4.57;;
317;SDS011;146;53.448;10.228;2023-04-24T02:13:16;4.13;;;3.83;;
317;SDS011;146;53.448;10.228;2023-04-24T02:15:44;4.23;;;3.93;;
317;SDS011;146;53.448;10.228;2023-04-24T02:18:11;3.90;;;3.70;;
317;SDS011;146;53.448;10.228;2023-04-24T02:20:38;3.80;;;3.50;;
317;SDS011;146;53.448;10.228;2023-04-24T02:23:05;4.67;;;4.27;;
317;SDS011;146;53.448;10.228;2023-04-24T02:25:32;4.33;;;3.93;;
317;SDS011;146;53.448;10.228;2023-04-24T02:27:59;3.73;;;3.50;;
317;SDS011;146;53.448;10.228;2023-04-24T02:30:27;3.60;;;3.30;;
317;SDS011;146;53.448;10.228;2023-04-24T02:32:55;3.13;;;2.93;;
317;SDS011;146;53.448;10.228;2023-04-24T02:35:22;3.40;;;3.20;;
317;SDS011;146;53.448;10.228;2023-04-24T02:37:50;2.73;;;2.63;;
317;SDS011;146;53.448;10.228;2023-04-24T02:40:17;2.53;;;2.33;;
317;SDS011;146;53.448;10.228;2023-04-24T02:42:44;2.70;;;2.50;;
317;SDS011;146;53.448;10.228;2023-04-24T02:45:10;3.00;;;2.70;;
317;SDS011;146;53.448;10.228;2023-04-24T02:47:37;2.80;;;2.60;;
317;SDS011;146;53.448;10.228;2023-04-24T02:50:06;2.60;;;2.40;;
317;SDS011;146;53.448;10.228;2023-04-24T02:52:34;2.57;;;2.37;;
317;SDS011;146;53.448;10.228;2023-04-24T02:55:00;2.50;;;2.30;;
317;SDS011;146;53.448;10.228;2023-04-24T02:57:27;2.10;;;2.00;;
317;SDS011;146;53.448;10.228;2023-04-24T02:59:54;2.43;;;2.23;;
317;SDS011;146;53.448;10.228;2023-04-24T03:02:21;2.10;;;2.00;;
317;SDS011;146;53.448;10.228;2023-04-24T03:04:48;2.10;;;1.90;;
317;SDS011;146;53.448;10.228;2023-04-24T03:07:16;2.07;;;1.97;;
317;SDS011;146;53.448;10.228;2023-04-24T03:09:45;2.10;;;1.90;;
317;SDS011;146;53.448;10.228;2023-04-24T03:12:12;1.90;;;1.80;;
317;SDS011;146;53.448;10.228;2023-04-24T03:14:39;1.80;;;1.70;;
317;SDS011;146;53.448;10.228;2023-04-24T03:17:07;2.10;;;2.00;;
317;SDS011;146;53.448;10.228;2023-04-24T03:19:34;2.17;;;2.07;;
317;SDS011;146;53.448;10.228;2023-04-24T03:22:01;2.27;;;2.17;;
317;SDS011;146;53.448;10.228;2023-04-24T03:24:40;6.30;;;1.97;;
317;SDS011;146;53.448;10.228;2023-04-24T03:27:07;2.00;;;1.90;;
317;SDS011;146;53.448;10.228;2023-04-24T03:29:34;2.73;;;2.40;;
317;SDS011;146;53.448;10.228;2023-04-24T03:32:00;2.20;;;2.10;;
317;SDS011;146;53.448;10.228;2023-04-24T03:34:27;2.30;;;2.20;;
317;SDS011;146;53.448;10.228;2023-04-24T03:36:54;2.40;;;2.30;;
317;SDS011;146;53.448;10.228;2023-04-24T03:39:21;2.70;;;2.50;;
317;SDS011;146;53.448;10.228;2023-04-24T03:41:51;2.57;;;2.37;;
317;SDS011;146;53.448;10.228;2023-04-24T03:44:17;2.30;;;2.20;;
317;SDS011;146;53.448;10.228;2023-04-24T03:46:44;2.50;;;2.40;;
317;SDS011;146;53.448;10.228;2023-04-24T03:49:11;2.43;;;2.30;;
317;SDS011;146;53.448;10.228;2023-04-24T03:51:38;2.60;;;2.40;;
317;SDS011;146;53.448;10.228;2023-04-24T03:54:04;3.93;;;2.40;;
317;SDS011;146;53.448;10.228;2023-04-24T03:56:31;2.07;;;1.97;;
317;SDS011;146;53.448;10.228;2023-04-24T03:58:59;2.53;;;2.43;;
317;SDS011;146;53.448;10.228;2023-04-24T04:01:27;2.37;;;2.23;;
317;SDS011;146;53.448;10.228;2023-04-24T04:03:55;2.67;;;2.47;;
317;SDS011;146;53.448;10.228;2023-04-24T04:06:22;3.13;;;2.93;;
317;SDS011;146;53.448;10.228;2023-04-24T04:08:49;2.27;;;2.17;;
317;SDS011;146;53.448;10.228;2023-04-24T04:11:16;2.53;;;2.37;;
317;SDS011;146;53.448;10.228;2023-04-24T04:13:43;2.30;;;2.20;;
317;SDS011;146;53.448;10.228;2023-04-24T04:16:12;2.27;;;2.17;;
317;SDS011;146;53.448;10.228;2023-04-24T04:18:39;2.10;;;2.00;;
317;SDS011;146;53.448;10.228;2023-04-24T04:21:05;2.50;;;2.33;;
317;SDS011;146;53.448;10.228;2023-04-24T04:23:32;2.03;;;1.93;;
317;SDS011;146;53.448;10.228;2023-04-24T04:26:00;2.50;;;2.30;;
317;SDS011;146;53.448;10.228;2023-04-24T04:28:33;2.53;;;2.33;;
317;SDS011;146;53.448;10.228;2023-04-24T04:31:00;2.13;;;2.03;;
317;SDS011;146;53.448;10.228;2023-04-24T04:33:28;2.33;;;2.23;;
317;SDS011;146;53.448;10.228;2023-04-24T04:35:56;2.00;;;1.90;;
317;SDS011;146;53.448;10.228;2023-04-24T04:38:23;2.13;;;2.03;;
317;SDS011;146;53.448;10.228;2023-04-24T04:40:51;2.50;;;2.30;;
317;SDS011;146;53.448;10.228;2023-04-24T04:43:18;1.90;;;1.80;;
317;SDS011;146;53.448;10.228;2023-04-24T04:45:45;2.10;;;2.00;;
317;SDS011;146;53.448;10.228;2023-04-24T04:48:13;1.87;;;1.77;;
317;SDS011;146;53.448;10.228;2023-04-24T04:50:43;1.93;;;1.83;;
317;SDS011;146;53.448;10.228;2023-04-24T04:53:10;1.70;;;1.60;;
317;SDS011;146;53.448;10.228;2023-04-24T04:55:37;2.10;;;1.90;;
317;SDS011;146;53.448;10.228;2023-04-24T04:58:04;2.30;;;2.10;;
317;SDS011;146;53.448;10.228;2023-04-24T05:00:31;2.80;;;1.90;;
317;SDS011;146;53.448;10.228;2023-04-24T05:03:00;2.07;;;1.97;;
317;SDS011;146;53.448;10.228;2023-04-24T05:05:27;1.70;;;1.60;;
317;SDS011;146;53.448;10.228;2023-04-24T05:07:55;1.93;;;1.83;;
317;SDS011;146;53.448;10.228;2023-04-24T05:10:22;2.20;;;2.10;;
317;SDS011;146;53.448;10.228;2023-04-24T05:12:49;2.20;;;2.10;;
317;SDS011;146;53.448;10.228;2023-04-24T05:15:17;2.47;;;1.70;;
317;SDS011;146;53.448;10.228;2023-04-24T05:17:44;1.80;;;1.70;;
317;SDS011;146;53.448;10.228;2023-04-24T05:20:11;1.50;;;1.43;;
317;SDS011;146;53.448;10.228;2023-04-24T05:22:38;1.67;;;1.57;;
317;SDS011;146;53.448;10.228;2023-04-24T05:25:06;1.47;;;1.37;;
317;SDS011;146;53.448;10.228;2023-04-24T05:27:33;1.53;;;1.43;;
317;SDS011;146;53.448;10.228;2023-04-24T05:30:00;1.33;;;1.23;;
317;SDS011;146;53.448;10.228;2023-04-24T05:32:27;1.60;;;1.50;;
317;SDS011;146;53.448;10.228;2023-04-24T05:34:54;1.50;;;1.40;;
317;SDS011;146;53.448;10.228;2023-04-24T05:37:21;1.70;;;1.60;;
317;SDS011;146;53.448;10.228;2023-04-24T05:39:48;1.07;;;1.07;;
317;SDS011;146;53.448;10.228;2023-04-24T05:42:16;1.57;;;1.47;;
317;SDS011;146;53.448;10.228;2023-04-24T05:44:43;1.87;;;1.77;;
317;SDS011;146;53.448;10.228;2023-04-24T05:47:09;1.43;;;1.33;;
317;SDS011;146;53.448;10.228;2023-04-24T05:49:36;1.90;;;1.80;;
317;SDS011;146;53.448;10.228;2023-04-24T05:52:03;1.03;;;1.03;;
317;SDS011;146;53.448;10.228;2023-04-24T05:54:31;1.70;;;1.60;;
317;SDS011;146;53.448;10.228;2023-04-24T05:56:58;2.80;;;1.60;;
317;SDS011;146;53.448;10.228;2023-04-24T05:59:27;1.43;;;1.43;;
317;SDS011;146;53.448;10.228;2023-04-24T06:01:54;1.90;;;1.80;;
317;SDS011;146;53.448;10.228;2023-04-24T06:04:21;1.57;;;1.47;;
317;SDS011;146;53.448;10.228;2023-04-24T06:06:48;1.77;;;1.67;;
317;SDS011;146;53.448;10.228;2023-04-24T06:09:20;1.80;;;1.70;;
317;SDS011;146;53.448;10.228;2023-04-24T06:11:47;1.60;;;1.50;;
317;SDS011;146;53.448;10.228;2023-04-24T06:14:15;1.70;;;1.60;;
317;SDS011;146;53.448;10.228;2023-04-24T06:16:43;2.13;;;1.93;;
317;SDS011;146;53.448;10.228;2023-04-24T06:19:10;1.83;;;1.73;;
317;SDS011;146;53.448;10.228;2023-04-24T06:21:36;1.70;;;1.60;;
317;SDS011;146;53.448;10.228;2023-04-24T06:24:03;1.77;;;1.67;;
317;SDS011;146;53.448;10.228;2023-04-24T06:26:30;1.80;;;1.70;;
317;SDS011;146;53.448;10.228;2023-04-24T06:28:57;2.33;;;2.23;;
317;SDS011;146;53.448;10.228;2023-04-24T06:31:25;2.00;;;1.90;;
317;SDS011;146;53.448;10.228;2023-04-24T06:33:53;4.87;;;1.67;;
317;SDS011;146;53.448;10.228;2023-04-24T06:36:20;2.40;;;2.20;;
317;SDS011;146;53.448;10.228;2023-04-24T06:38:46;2.00;;;1.90;;
317;SDS011;146;53.448;10.228;2023-04-24T06:41:15;2.40;;;2.20;;
317;SDS011;146;53.448;10.228;2023-04-24T06:43:42;2.40;;;2.20;;
317;SDS011;146;53.448;10.228;2023-04-24T06:46:09;1.93;;;1.83;;
317;SDS011;146;53.448;10.228;2023-04-24T06:48:37;4.20;;;2.33;;
317;SDS011;146;53.448;10.228;2023-04-24T06:51:06;2.77;;;2.57;;
317;SDS011;146;53.448;10.228;2023-04-24T06:53:32;2.30;;;2.10;;
317;SDS011;146;53.448;10.228;2023-04-24T06:55:59;1.80;;;1.70;;
317;SDS011;146;53.448;10.228;2023-04-24T06:58:26;2.10;;;2.00;;
317;SDS011;146;53.448;10.228;2023-04-24T07:00:53;2.00;;;1.90;;
317;SDS011;146;53.448;10.228;2023-04-24T07:03:20;2.80;;;2.60;;
317;SDS011;146;53.448;10.228;2023-04-24T07:05:48;2.20;;;2.00;;
317;SDS011;146;53.448;10.228;2023-04-24T07:08:16;1.90;;;1.80;;
317;SDS011;146;53.448;10.228;2023-04-24T07:10:43;2.10;;;2.00;;
317;SDS011;146;53.448;10.228;2023-04-24T07:13:10;2.60;;;2.40;;
317;SDS011;146;53.448;10.228;2023-04-24T07:15:37;2.40;;;2.20;;
317;SDS011;146;53.448;10.228;2023-04-24T07:18:04;1.80;;;1.63;;
317;SDS011;146;53.448;10.228;2023-04-24T07:20:31;3.13;;;2.90;;
317;SDS011;146;53.448;10.228;2023-04-24T07:22:59;2.80;;;2.60;;
317;SDS011;146;53.448;10.228;2023-04-24T07:25:27;2.10;;;2.00;;
317;SDS011;146;53.448;10.228;2023-04-24T07:27:54;3.00;;;2.70;;
317;SDS011;146;53.448;10.228;2023-04-24T07:30:21;2.50;;;2.37;;
317;SDS011;146;53.448;10.228;2023-04-24T07:32:47;2.60;;;2.40;;
317;SDS011;146;53.448;10.228;2023-04-24T07:35:14;2.30;;;2.10;;
317;SDS011;146;53.448;10.228;2023-04-24T07:37:41;2.30;;;2.20;;
317;SDS011;146;53.448;10.228;2023-04-24T07:40:11;2.67;;;2.47;;
317;SDS011;146;53.448;10.228;2023-04-24T07:42:41;2.73;;;2.53;;
317;SDS011;146;53.448;10.228;2023-04-24T07:45:08;2.27;;;2.17;;
317;SDS011;146;53.448;10.228;2023-04-24T07:47:35;2.30;;;2.10;;
317;SDS011;146;53.448;10.228;2023-04-24T07:50:04;2.03;;;1.93;;
317;SDS011;146;53.448;10.228;2023-04-24T07:52:32;2.00;;;1.90;;
317;SDS011;146;53.448;10.228;2023-04-24T07:54:59;4.00;;;2.70;;
317;SDS011;146;53.448;10.228;2023-04-24T07:57:27;2.13;;;2.03;;
317;SDS011;146;53.448;10.228;2023-04-24T07:59:55;2.43;;;2.33;;
317;SDS011;146;53.448;10.228;2023-04-24T08:02:22;2.30;;;2.20;;
317;SDS011;146;53.448;10.228;2023-04-24T08:04:51;2.60;;;2.50;;
317;SDS011;146;53.448;10.228;2023-04-24T08:07:19;3.67;;;2.17;;
317;SDS011;146;53.448;10.228;2023-04-24T08:09:46;2.63;;;2.40;;
317;SDS011;146;53.448;10.228;2023-04-24T08:12:13;2.73;;;2.53;;
317;SDS011;146;53.448;10.228;2023-04-24T08:14:40;3.10;;;2.90;;
317;SDS011;146;53.448;10.228;2023-04-24T08:17:08;3.33;;;3.03;;
317;SDS011;146;53.448;10.228;2023-04-24T08:19:35;3.73;;;3.53;;
317;SDS011;146;53.448;10.228;2023-04-24T08:22:01;3.70;;;3.40;;
317;SDS011;146;53.448;10.228;2023-04-24T08:24:29;3.40;;;3.20;;
317;SDS011;146;53.448;10.228;2023-04-24T08:26:56;4.93;;;4.63;;
317;SDS011;146;53.448;10.228;2023-04-24T08:29:23;4.00;;;3.70;;
317;SDS011;146;53.448;10.228;2023-04-24T08:31:50;5.00;;;4.60;;
317;SDS011;146;53.448;10.228;2023-04-24T08:34:20;5.00;;;4.60;;
317;SDS011;146;53.448;10.228;2023-04-24T08:36:47;5.30;;;4.80;;
317;SDS011;146;53.448;10.228;2023-04-24T08:39:14;5.10;;;4.70;;
317;SDS011;146;53.448;10.228;2023-04-24T08:41:43;5.53;;;5.03;;
317;SDS011;146;53.448;10.228;2023-04-24T08:44:10;5.60;;;5.20;;
317;SDS011;146;53.448;10.228;2023-04-24T08:46:37;5.00;;;4.60;;
317;SDS011;146;53.448;10.228;2023-04-24T08:49:05;4.90;;;4.60;;
317;SDS011;146;53.448;10.228;2023-04-24T08:51:33;5.20;;;4.80;;
317;SDS011;146;53.448;10.228;2023-04-24T08:54:02;5.90;;;5.30;;
317;SDS011;146;53.448;10.228;2023-04-24T08:56:30;6.00;;;5.50;;
317;SDS011;146;53.448;10.228;2023-04-24T08:58:59;5.93;;;5.43;;
317;SDS011;146;53.448;10.228;2023-04-24T09:01:26;5.33;;;4.93;;
317;SDS011;146;53.448;10.228;2023-04-24T09:03:54;5.33;;;4.97;;
317;SDS011;146;53.448;10.228;2023-04-24T09:06:22;6.80;;;6.30;;
317;SDS011;146;53.448;10.228;2023-04-24T09:08:52;6.70;;;6.20;;
317;SDS011;146;53.448;10.228;2023-04-24T09:11:21;6.10;;;5.60;;
317;SDS011;146;53.448;10.228;2023-04-24T09:13:50;5.97;;;5.57;;
317;SDS011;146;53.448;10.228;2023-04-24T09:16:17;5.80;;;5.30;;
317;SDS011;146;53.448;10.228;2023-04-24T09:18:45;5.53;;;5.13;;
317;SDS011;146;53.448;10.228;2023-04-24T09:21:12;5.10;;;4.80;;
317;SDS011;146;53.448;10.228;2023-04-24T09:23:39;4.13;;;3.90;;
317;SDS011;146;53.448;10.228;2023-04-24T09:26:08;4.93;;;4.53;;
317;SDS011;146;53.448;10.228;2023-04-24T09:28:36;5.77;;;5.37;;
317;SDS011;146;53.448;10.228;2023-04-24T09:31:05;6.00;;;5.60;;
317;SDS011;146;53.448;10.228;2023-04-24T09:33:34;5.30;;;5.00;;
317;SDS011;146;53.448;10.228;2023-04-24T09:36:01;6.13;;;5.67;;
317;SDS011;146;53.448;10.228;2023-04-24T09:38:32;5.70;;;5.30;;
317;SDS011;146;53.448;10.228;2023-04-24T09:41:00;6.90;;;6.40;;
317;SDS011;146;53.448;10.228;2023-04-24T09:43:30;5.30;;;5.00;;
317;SDS011;146;53.448;10.228;2023-04-24T09:45:57;6.17;;;5.67;;
317;SDS011;146;53.448;10.228;2023-04-24T09:48:32;6.13;;;5.67;;
317;SDS011;146;53.448;10.228;2023-04-24T09:51:00;6.03;;;5.53;;
317;SDS011;146;53.448;10.228;2023-04-24T09:53:28;6.27;;;5.50;;
317;SDS011;146;53.448;10.228;2023-04-24T09:55:56;6.40;;;5.90;;
317;SDS011;146;53.448;10.228;2023-04-24T09:58:30;6.70;;;6.20;;
317;SDS011;146;53.448;10.228;2023-04-24T10:00:57;6.57;;;6.07;;
317;SDS011;146;53.448;10.228;2023-04-24T10:03:24;5.80;;;5.30;;
317;SDS011;146;53.448;10.228;2023-04-24T10:05:52;10.07;;;5.93;;
317;SDS011;146;53.448;10.228;2023-04-24T10:08:20;6.73;;;6.23;;
317;SDS011;146;53.448;10.228;2023-04-24T10:10:48;6.30;;;5.80;;
317;SDS011;146;53.448;10.228;2023-04-24T10:13:15;6.23;;;5.73;;
317;SDS011;146;53.448;10.228;2023-04-24T10:15:43;6.83;;;6.33;;
317;SDS011;146;53.448;10.228;2023-04-24T10:18:10;6.43;;;5.90;;
317;SDS011;146;53.448;10.228;2023-04-24T10:20:38;6.03;;;5.53;;
317;SDS011;146;53.448;10.228;2023-04-24T10:23:06;7.33;;;6.07;;
317;SDS011;146;53.448;10.228;2023-04-24T10:25:33;6.83;;;6.33;;
317;SDS011;146;53.448;10.228;2023-04-24T10:28:02;8.27;;;7.67;;
317;SDS011;146;53.448;10.228;2023-04-24T10:30:30;7.73;;;7.13;;
317;SDS011;146;53.448;10.228;2023-04-24T10:33:01;8.13;;;7.40;;
317;SDS011;146;53.448;10.228;2023-04-24T10:35:30;7.60;;;6.80;;
317;SDS011;146;53.448;10.228;2023-04-24T10:37:59;7.60;;;6.90;;
317;SDS011;146;53.448;10.228;2023-04-24T10:40:30;7.30;;;6.80;;
317;SDS011;146;53.448;10.228;2023-04-24T10:42:59;9.03;;;7.80;;
317;SDS011;146;53.448;10.228;2023-04-24T10:45:27;7.50;;;6.70;;
317;SDS011;146;53.448;10.228;2023-04-24T10:47:58;8.60;;;7.80;;
317;SDS011;146;53.448;10.228;2023-04-24T10:50:29;9.07;;;8.13;;
317;SDS011;146;53.448;10.228;2023-04-24T10:53:09;7.90;;;7.20;;
317;SDS011;146;53.448;10.228;2023-04-24T10:55:39;9.10;;;8.30;;
317;SDS011;146;53.448;10.228;2023-04-24T10:58:11;8.80;;;8.00;;
317;SDS011;146;53.448;10.228;2023-04-24T11:00:39;8.10;;;7.30;;
317;SDS011;146;53.448;10.228;2023-04-24T11:03:12;9.03;;;8.10;;
317;SDS011;146;53.448;10.228;2023-04-24T11:05:52;9.47;;;8.53;;
317;SDS011;146;53.448;10.228;2023-04-24T11:08:21;9.37;;;8.50;;
317;SDS011;146;53.448;10.228;2023-04-24T11:10:57;9.10;;;8.40;;
317;SDS011;146;53.448;10.228;2023-04-24T11:16:29;8.40;;;7.67;;
317;SDS011;146;53.448;10.228;2023-04-24T11:19:01;8.40;;;7.70;;
317;SDS011;146;53.448;10.228;2023-04-24T11:21:39;8.60;;;7.83;;
317;SDS011;146;53.448;10.228;2023-04-24T11:27:07;8.43;;;7.57;;
317;SDS011;146;53.448;10.228;2023-04-24T11:29:43;8.07;;;7.23;;
317;SDS011;146;53.448;10.228;2023-04-24T11:32:24;9.33;;;8.53;;
317;SDS011;146;53.448;10.228;2023-04-24T11:34:52;7.83;;;7.20;;
317;SDS011;146;53.448;10.228;2023-04-24T11:37:22;8.30;;;7.60;;
317;SDS011;146;53.448;10.228;2023-04-24T11:39:51;8.50;;;7.60;;
317;SDS011;146;53.448;10.228;2023-04-24T11:42:19;8.00;;;7.30;;
317;SDS011;146;53.448;10.228;2023-04-24T11:44:47;8.27;;;7.50;;
317;SDS011;146;53.448;10.228;2023-04-24T11:47:15;7.63;;;6.83;;
317;SDS011;146;53.448;10.228;2023-04-24T11:49:42;7.90;;;7.20;;
317;SDS011;146;53.448;10.228;2023-04-24T11:52:09;7.13;;;6.53;;
317;SDS011;146;53.448;10.228;2023-04-24T11:54:37;5.90;;;5.50;;
317;SDS011;146;53.448;10.228;2023-04-24T11:57:04;6.20;;;5.70;;
317;SDS011;146;53.448;10.228;2023-04-24T11:59:35;5.97;;;5.47;;
317;SDS011;146;53.448;10.228;2023-04-24T12:02:03;5.70;;;5.20;;
317;SDS011;146;53.448;10.228;2023-04-24T12:04:38;5.47;;;5.07;;
317;SDS011;146;53.448;10.228;2023-04-24T12:07:06;5.13;;;4.73;;
317;SDS011;146;53.448;10.228;2023-04-24T12:09:41;4.90;;;4.50;;
317;SDS011;146;53.448;10.228;2023-04-24T12:12:10;5.20;;;4.70;;
317;SDS011;146;53.448;10.228;2023-04-24T12:14:47;5.17;;;4.77;;
317;SDS011;146;53.448;10.228;2023-04-24T12:17:15;5.30;;;5.00;;
317;SDS011;146;53.448;10.228;2023-04-24T12:19:47;5.20;;;4.90;;
317;SDS011;146;53.448;10.228;2023-04-24T12:22:15;7.00;;;6.40;;
317;SDS011;146;53.448;10.228;2023-04-24T12:24:56;6.03;;;5.53;;
317;SDS011;146;53.448;10.228;2023-04-24T12:27:25;6.63;;;6.03;;
317;SDS011;146;53.448;10.228;2023-04-24T12:29:52;7.00;;;6.40;;
317;SDS011;146;53.448;10.228;2023-04-24T12:32:21;6.33;;;5.87;;
317;SDS011;146;53.448;10.228;2023-04-24T12:34:49;6.60;;;6.03;;
317;SDS011;146;53.448;10.228;2023-04-24T12:37:16;5.83;;;5.43;;
317;SDS011;146;53.448;10.228;2023-04-24T12:39:45;6.27;;;5.77;;
317;SDS011;146;53.448;10.228;2023-04-24T12:42:26;6.40;;;5.90;;
317;SDS011;146;53.448;10.228;2023-04-24T12:44:56;6.30;;;5.80;;
317;SDS011;146;53.448;10.228;2023-04-24T12:47:24;5.50;;;5.10;;
317;SDS011;146;53.448;10.228;2023-04-24T12:49:51;5.27;;;4.77;;
317;SDS011;146;53.448;10.228;2023-04-24T12:52:20;5.53;;;5.13;;
317;SDS011;146;53.448;10.228;2023-04-24T12:54:48;5.10;;;4.70;;
317;SDS011;146;53.448;10.228;2023-04-24T12:57:17;5.20;;;4.80;;
317;SDS011;146;53.448;10.228;2023-04-24T12:59:44;5.53;;;5.13;;
317;SDS011;146;53.448;10.228;2023-04-24T13:02:10;5.17;;;4.77;;
317;SDS011;146;53.448;10.228;2023-04-24T13:04:38;5.37;;;4.87;;
317;SDS011;146;53.448;10.228;2023-04-24T13:07:04;5.53;;;5.10;;
317;SDS011;146;53.448;10.228;2023-04-24T13:09:33;5.00;;;4.70;;
317;SDS011;146;53.448;10.228;2023-04-24T13:12:00;5.20;;;4.80;;
317;SDS011;146;53.448;10.228;2023-04-24T13:14:29;6.13;;;5.63;;
317;SDS011;146;53.448;10.228;2023-04-24T13:17:33;5.10;;;4.67;;
317;SDS011;146;53.448;10.228;2023-04-24T13:20:00;5.40;;;5.00;;
317;SDS011;146;53.448;10.228;2023-04-24T13:22:27;4.60;;;4.30;;
317;SDS011;146;53.448;10.228;2023-04-24T13:24:55;5.30;;;4.90;;
317;SDS011;146;53.448;10.228;2023-04-24T13:27:22;4.60;;;4.30;;
317;SDS011;146;53.448;10.228;2023-04-24T13:29:50;4.70;;;4.40;;
317;SDS011;146;53.448;10.228;2023-04-24T13:32:17;4.40;;;4.20;;
317;SDS011;146;53.448;10.228;2023-04-24T13:34:45;4.53;;;4.23;;
317;SDS011;146;53.448;10.228;2023-04-24T13:37:12;4.97;;;4.53;;
317;SDS011;146;53.448;10.228;2023-04-24T13:39:40;4.87;;;4.57;;
317;SDS011;146;53.448;10.228;2023-04-24T13:42:07;3.73;;;3.53;;
317;SDS011;146;53.448;10.228;2023-04-24T13:44:34;3.70;;;3.50;;
317;SDS011;146;53.448;10.228;2023-04-24T13:47:02;4.00;;;3.70;;
317;SDS011;146;53.448;10.228;2023-04-24T13:49:29;3.53;;;3.33;;
317;SDS011;146;53.448;10.228;2023-04-24T13:51:56;3.37;;;3.17;;
317;SDS011;146;53.448;10.228;2023-04-24T13:54:23;5.50;;;3.80;;
317;SDS011;146;53.448;10.228;2023-04-24T13:56:50;3.57;;;3.37;;
317;SDS011;146;53.448;10.228;2023-04-24T13:59:17;3.30;;;3.07;;
317;SDS011;146;53.448;10.228;2023-04-24T14:01:46;3.73;;;3.53;;
317;SDS011;146;53.448;10.228;2023-04-24T14:04:14;2.97;;;2.77;;
317;SDS011;146;53.448;10.228;2023-04-24T14:06:41;3.13;;;2.97;;
317;SDS011;146;53.448;10.228;2023-04-24T14:09:07;3.03;;;2.87;;
317;SDS011;146;53.448;10.228;2023-04-24T14:11:34;3.23;;;3.03;;
317;SDS011;146;53.448;10.228;2023-04-24T14:14:01;3.33;;;3.13;;
317;SDS011;146;53.448;10.228;2023-04-24T14:16:28;3.57;;;3.37;;
317;SDS011;146;53.448;10.228;2023-04-24T14:18:56;3.47;;;3.23;;
317;SDS011;146;53.448;10.228;2023-04-24T14:21:24;3.37;;;3.17;;
317;SDS011;146;53.448;10.228;2023-04-24T14:23:51;3.00;;;2.80;;
317;SDS011;146;53.448;10.228;2023-04-24T14:26:18;3.47;;;3.17;;
317;SDS011;146;53.448;10.228;2023-04-24T14:28:45;3.57;;;3.37;;
317;SDS011;146;53.448;10.228;2023-04-24T14:31:12;3.20;;;3.00;;
317;SDS011;146;53.448;10.228;2023-04-24T14:33:39;3.00;;;2.80;;
317;SDS011;146;53.448;10.228;2023-04-24T14:36:08;2.80;;;2.57;;
317;SDS011;146;53.448;10.228;2023-04-24T14:38:36;3.87;;;3.57;;
317;SDS011;146;53.448;10.228;2023-04-24T14:41:06;3.63;;;3.00;;
317;SDS011;146;53.448;10.228;2023-04-24T14:43:35;3.50;;;3.30;;
317;SDS011;146;53.448;10.228;2023-04-24T14:46:01;2.90;;;2.70;;
317;SDS011;146;53.448;10.228;2023-04-24T14:48:28;3.30;;;3.10;;
317;SDS011;146;53.448;10.228;2023-04-24T14:50:55;3.37;;;3.17;;
317;SDS011;146;53.448;10.228;2023-04-24T14:53:22;3.33;;;3.13;;
317;SDS011;146;53.448;10.228;2023-04-24T14:55:50;5.60;;;3.60;;
317;SDS011;146;53.448;10.228;2023-04-24T14:58:17;3.30;;;3.10;;
317;SDS011;146;53.448;10.228;2023-04-24T15:00:44;3.07;;;2.87;;
317;SDS011;146;53.448;10.228;2023-04-24T15:03:17;3.20;;;3.00;;
317;SDS011;146;53.448;10.228;2023-04-24T15:05:51;2.00;;;1.90;;
317;SDS011;146;53.448;10.228;2023-04-24T15:08:18;2.60;;;2.50;;
317;SDS011;146;53.448;10.228;2023-04-24T15:10:44;3.10;;;2.90;;
317;SDS011;146;53.448;10.228;2023-04-24T15:13:13;2.00;;;1.90;;
317;SDS011;146;53.448;10.228;2023-04-24T15:15:40;2.20;;;2.10;;
317;SDS011;146;53.448;10.228;2023-04-24T15:18:08;2.10;;;2.00;;
317;SDS011;146;53.448;10.228;2023-04-24T15:20:36;2.30;;;2.10;;
317;SDS011;146;53.448;10.228;2023-04-24T15:23:04;1.93;;;1.83;;
317;SDS011;146;53.448;10.228;2023-04-24T15:25:32;2.77;;;2.60;;
317;SDS011;146;53.448;10.228;2023-04-24T15:27:59;2.77;;;2.60;;
317;SDS011;146;53.448;10.228;2023-04-24T15:30:27;2.30;;;2.20;;
317;SDS011;146;53.448;10.228;2023-04-24T15:32:55;3.43;;;3.17;;
317;SDS011;146;53.448;10.228;2023-04-24T15:35:21;3.87;;;3.57;;
317;SDS011;146;53.448;10.228;2023-04-24T15:37:48;4.70;;;4.30;;
317;SDS011;146;53.448;10.228;2023-04-24T15:40:18;5.00;;;4.30;;